»·PEaware :: N1453S KBUR-KLAS

N1453S :: KBUR-KLAS

FLIGHT INFORMATION

Flight Status: Arrived
Operator: Privately registered:
United States
More flights under this callsign
Pilot: Langdon M. (23058)
Aircraft: BEECH AIRCRAFT BARON
(BE58)
More flights by this aircraft type
Origin: KBUR Bob Hope-Burbank
United States
Destination: KLAS McCarran Intl
United States
More flights between these airports :: More routes between these airports
Route: +VNY3 DAG DAG CRESO4 KLAS
File this flight plan on PilotEdge
Remarks: I-5
Altitude:
(Current/Filed)
9,000ft
Speed:
(Current/Filed)
185kts
Departed: 29-Jan-19 12:40 PM
Arrived: 29-Jan-19 02:05 PM
Distance/Time
Traveled:
193nm/1:25
Distance/Time
To Go:
Arrived

Flight Plot

Page will automatically refresh every two minutes.

Flight plan parsing failed; only flown route is shown


Map Options




Map Legend


Flown Route
Filed Route
Departure Airport
Arrival Airport
Navaid (VOR, NDB)
Fix

Horizontal Profiles

Position Reports

Time Latitude Longitude Heading Altitude Ground
Speed
29-Jan-19 12:08 34.200204 -118.358744 263 781ft 0kts
29-Jan-19 12:09 34.200204 -118.358744 263 781ft 0kts
29-Jan-19 12:10 34.200204 -118.358744 263 781ft 0kts
29-Jan-19 12:11 34.200204 -118.358744 263 781ft 0kts
29-Jan-19 12:12 34.200204 -118.358744 263 781ft 0kts
29-Jan-19 12:13 34.200204 -118.358744 263 781ft 0kts
29-Jan-19 12:14 34.200204 -118.358744 263 781ft 0kts
29-Jan-19 12:15 34.200204 -118.358744 263 781ft 0kts
29-Jan-19 12:16 34.200204 -118.358744 263 781ft 0kts
29-Jan-19 12:16 34.200203 -118.358747 263 781ft 0kts
29-Jan-19 12:18 34.200203 -118.358748 263 781ft 0kts
29-Jan-19 12:19 34.200203 -118.358751 263 781ft 0kts
29-Jan-19 12:20 34.200203 -118.358751 263 781ft 0kts
29-Jan-19 12:21 34.200203 -118.358751 263 781ft 0kts
29-Jan-19 12:22 34.200203 -118.358751 263 781ft 0kts
29-Jan-19 12:22 34.200203 -118.358751 263 781ft 0kts
29-Jan-19 12:23 34.200203 -118.358751 263 781ft 0kts
29-Jan-19 12:24 34.200203 -118.358751 263 781ft 0kts
29-Jan-19 12:25 34.200185 -118.358829 238 781ft 2kts
29-Jan-19 12:26 34.201154 -118.358527 347 781ft 16kts
29-Jan-19 12:27 34.207119 -118.360185 345 781ft 25kts
29-Jan-19 12:28 34.211765 -118.361472 346 781ft 9kts
29-Jan-19 12:29 34.212099 -118.361359 39 781ft 0kts
29-Jan-19 12:30 34.212099 -118.361359 39 781ft 0kts
29-Jan-19 12:31 34.212099 -118.361359 39 781ft 0kts
29-Jan-19 12:32 34.212099 -118.361359 39 781ft 0kts
29-Jan-19 12:33 34.212099 -118.361359 39 781ft 0kts
29-Jan-19 12:34 34.212099 -118.361359 39 781ft 0kts
29-Jan-19 12:35 34.212102 -118.361356 39 781ft 0kts
29-Jan-19 12:36 34.212102 -118.361356 39 781ft 0kts
29-Jan-19 12:37 34.212102 -118.361356 39 781ft 0kts
29-Jan-19 12:38 34.212102 -118.361356 39 781ft 0kts
29-Jan-19 12:39 34.201764 -118.357632 169 900ft 112kts
29-Jan-19 12:40 34.174009 -118.367956 224 2289ft 129kts
29-Jan-19 12:41 34.149602 -118.395884 226 3739ft 125kts
29-Jan-19 12:42 34.121077 -118.432395 227 4057ft 176kts
29-Jan-19 12:43 34.099723 -118.478832 296 5006ft 141kts
29-Jan-19 12:44 34.133731 -118.495673 350 5960ft 138kts
29-Jan-19 12:45 34.171001 -118.502466 350 6927ft 135kts
29-Jan-19 12:46 34.208603 -118.508762 349 7872ft 136kts
29-Jan-19 12:47 34.246668 -118.514472 356 8757ft 139kts
29-Jan-19 12:48 34.284130 -118.498591 18 9477ft 146kts
29-Jan-19 12:49 34.321465 -118.479036 16 10128ft 147kts
29-Jan-19 12:50 34.360644 -118.463925 10 10675ft 148kts
29-Jan-19 12:51 34.398482 -118.443588 53 10974ft 174kts
29-Jan-19 12:52 34.423725 -118.392672 51 11093ft 184kts
29-Jan-19 12:53 34.452466 -118.340655 51 11050ft 188kts
29-Jan-19 12:54 34.481505 -118.287894 49 11091ft 184kts
29-Jan-19 12:55 34.512142 -118.236338 47 11119ft 187kts
29-Jan-19 12:56 34.545569 -118.186793 42 11057ft 191kts
29-Jan-19 12:57 34.582250 -118.140051 42 11061ft 188kts
29-Jan-19 12:58 34.618733 -118.092127 49 11132ft 193kts
29-Jan-19 12:59 34.641583 -118.031914 82 11009ft 206kts
29-Jan-19 13:00 34.648111 -117.963558 80 11074ft 203kts
29-Jan-19 13:01 34.649934 -117.895339 84 11052ft 203kts
29-Jan-19 13:02 34.657537 -117.828436 76 11086ft 198kts
29-Jan-19 13:03 34.667203 -117.762365 72 11097ft 198kts
29-Jan-19 13:04 34.680978 -117.697767 69 11163ft 196kts
29-Jan-19 13:05 34.695607 -117.632697 68 11096ft 199kts
29-Jan-19 13:06 34.713284 -117.568628 73 11017ft 202kts
29-Jan-19 13:07 34.727856 -117.503545 66 11044ft 198kts
29-Jan-19 13:08 34.748180 -117.441385 63 11031ft 197kts
29-Jan-19 13:09 34.767017 -117.378352 66 11020ft 198kts
29-Jan-19 13:10 34.783012 -117.313715 68 11012ft 198kts
29-Jan-19 13:11 34.802092 -117.250735 71 10961ft 200kts
29-Jan-19 13:12 34.813432 -117.184494 79 10971ft 200kts
29-Jan-19 13:13 34.826580 -117.118944 68 10943ft 199kts
29-Jan-19 13:14 34.845700 -117.055871 68 10936ft 198kts
29-Jan-19 13:15 34.858038 -116.990134 77 10938ft 199kts
29-Jan-19 13:16 34.874072 -116.926171 62 10935ft 196kts
29-Jan-19 13:17 34.893857 -116.864354 71 10938ft 196kts
29-Jan-19 13:18 34.907311 -116.799481 74 10926ft 197kts
29-Jan-19 13:19 34.919963 -116.734773 71 10944ft 195kts
29-Jan-19 13:20 34.936681 -116.671842 68 10972ft 196kts
29-Jan-19 13:21 34.954859 -116.608983 69 10983ft 196kts
29-Jan-19 13:22 34.976064 -116.548147 58 10972ft 194kts
29-Jan-19 13:23 34.999783 -116.488396 60 10957ft 195kts
29-Jan-19 13:24 35.026621 -116.430660 56 10955ft 195kts
29-Jan-19 13:25 35.053111 -116.372841 60 10973ft 194kts
29-Jan-19 13:26 35.076204 -116.312426 66 10965ft 196kts
29-Jan-19 13:27 35.102326 -116.254507 57 11011ft 193kts
29-Jan-19 13:28 35.128865 -116.196416 59 10979ft 195kts
29-Jan-19 13:29 35.156683 -116.139660 58 10981ft 195kts
29-Jan-19 13:30 35.180095 -116.079400 69 10975ft 196kts
29-Jan-19 13:31 35.203176 -116.019491 54 10986ft 194kts
29-Jan-19 13:32 35.232921 -115.964224 55 10982ft 195kts
29-Jan-19 13:33 35.258661 -115.905644 59 10982ft 195kts
29-Jan-19 13:34 35.284164 -115.846842 59 11008ft 195kts
29-Jan-19 13:35 35.307070 -115.786612 59 10610ft 196kts
29-Jan-19 13:36 35.342586 -115.738056 42 10092ft 188kts
29-Jan-19 13:37 35.380440 -115.692811 40 10083ft 190kts
29-Jan-19 13:38 35.415754 -115.644700 48 10109ft 191kts
29-Jan-19 13:39 35.450085 -115.594087 46 10067ft 194kts
29-Jan-19 13:40 35.485635 -115.544826 45 10104ft 192kts
29-Jan-19 13:41 35.522053 -115.497365 41 10153ft 189kts
29-Jan-19 13:42 35.561490 -115.454211 38 10153ft 190kts
29-Jan-19 13:43 35.596922 -115.404332 50 10100ft 193kts
29-Jan-19 13:44 35.633194 -115.355508 42 10051ft 195kts
29-Jan-19 13:45 35.668755 -115.306393 47 10113ft 191kts
29-Jan-19 13:46 35.703640 -115.256950 45 10146ft 190kts
29-Jan-19 13:47 35.739783 -115.209282 43 10152ft 190kts
29-Jan-19 13:48 35.776032 -115.161609 50 10180ft 190kts
29-Jan-19 13:49 35.812377 -115.112570 27 9994ft 192kts
29-Jan-19 13:50 35.859060 -115.085470 22 9481ft 181kts
29-Jan-19 13:51 35.905780 -115.060443 20 8709ft 181kts
29-Jan-19 13:52 35.950761 -115.032354 21 7985ft 183kts
29-Jan-19 13:53 35.997858 -115.008345 21 6952ft 185kts
29-Jan-19 13:54 36.044047 -114.983745 18 5995ft 176kts
29-Jan-19 13:55 36.087328 -114.960216 21 5465ft 160kts
29-Jan-19 13:56 36.129036 -114.940646 6 4785ft 168kts
29-Jan-19 13:57 36.155911 -114.965981 274 4269ft 128kts
29-Jan-19 13:58 36.155035 -115.008613 275 3467ft 118kts
29-Jan-19 13:59 36.153574 -115.044821 261 3117ft 103kts
29-Jan-19 14:00 36.148199 -115.079469 261 2884ft 96kts
29-Jan-19 14:01 36.142031 -115.112035 239 2939ft 100kts
29-Jan-19 14:02 36.121932 -115.133906 243 2824ft 101kts
29-Jan-19 14:04 36.101121 -115.155584 206 2302ft 98kts
29-Jan-19 14:05 36.089315 -115.163292 297 2185ft 11kts
29-Jan-19 14:06 36.089400 -115.163498 294 2185ft 0kts
29-Jan-19 14:07 36.089412 -115.163530 294 2185ft 2kts
29-Jan-19 14:08 36.089419 -115.165229 272 2185ft 11kts
29-Jan-19 14:09 36.089340 -115.166492 79 2185ft 0kts
29-Jan-19 14:10 36.089340 -115.166492 79 2185ft 0kts
29-Jan-19 14:11 36.089340 -115.166492 79 2185ft 0kts
29-Jan-19 14:12 36.089340 -115.166492 79 2185ft 0kts
29-Jan-19 14:13 36.089340 -115.166492 79 2185ft 0kts
29-Jan-19 14:14 36.089340 -115.166492 79 2185ft 0kts
29-Jan-19 14:15 36.089340 -115.166492 79 2185ft 0kts
29-Jan-19 14:16 36.089340 -115.166492 79 2185ft 0kts
29-Jan-19 14:17 36.089340 -115.166492 79 2185ft 0kts
29-Jan-19 14:18 36.089340 -115.166492 79 2185ft 0kts
29-Jan-19 14:19 36.089340 -115.166492 79 2185ft 0kts

Navigation Log

Ident Type
Flight plan parsing failed, navigation log unavailable